Time;durP1;ratioP1;P1;durP2;ratioP2;P2;SDS_P1;SDS_P2;PMS_P1;PMS_P2;Temp;Humidity;BMP_temperature;BMP_pressure;BME280_temperature;BME280_humidity;BME280_pressure;Samples;Min_cycle;Max_cycle;Signal;HPM_P1;HPM_P2
2021/05/11 00:02:04;;;;;;;9.50;2.60;;;;;;;;;;4919314;29;20044;-60
2021/05/11 00:04:33;;;;;;;9.00;2.63;;;;;;;;;;4921037;29;20060;-63
2021/05/11 00:06:59;;;;;;;10.95;2.90;;;;;;;;;;4915998;29;20055;-62
2021/05/11 00:09:25;;;;;;;10.55;3.28;;;;;;;;;;4909346;29;20043;-62
2021/05/11 00:11:51;;;;;;;8.35;3.03;;;;;;;;;;4904162;29;20044;-63
2021/05/11 00:14:17;;;;;;;8.73;2.90;;;;;;;;;;4920728;29;20066;-61
2021/05/11 00:16:43;;;;;;;9.60;3.08;;;;;;;;;;4921320;29;20051;-62
2021/05/11 00:19:13;;;;;;;12.43;3.40;;;;;;;;;;4907666;29;20040;-60
2021/05/11 00:21:39;;;;;;;12.02;3.17;;;;;;;;;;4905889;29;20025;-62
2021/05/11 00:24:05;;;;;;;14.45;3.30;;;;;;;;;;4906349;29;20184;-62
2021/05/11 00:26:32;;;;;;;13.57;3.65;;;;;;;;;;4915978;29;20100;-63
2021/05/11 00:29:00;;;;;;;9.55;3.33;;;;;;;;;;4907740;29;20055;-59
2021/05/11 00:31:26;;;;;;;9.30;3.50;;;;;;;;;;4906626;29;20040;-59
2021/05/11 00:33:55;;;;;;;10.38;3.13;;;;;;;;;;4926304;29;20066;-59
2021/05/11 00:36:21;;;;;;;8.77;3.03;;;;;;;;;;4923764;29;20032;-59
2021/05/11 00:38:47;;;;;;;13.05;3.65;;;;;;;;;;4911678;29;20032;-59
2021/05/11 00:41:13;;;;;;;15.95;3.78;;;;;;;;;;4908690;29;20054;-61
2021/05/11 00:43:43;;;;;;;16.40;3.40;;;;;;;;;;4888671;29;20060;-61
2021/05/11 00:46:09;;;;;;;8.48;3.35;;;;;;;;;;4919966;29;20063;-62
2021/05/11 00:48:35;;;;;;;14.77;4.43;;;;;;;;;;4903368;29;20126;-62
2021/05/11 00:51:02;;;;;;;10.82;3.78;;;;;;;;;;4920223;29;20044;-59
2021/05/11 00:53:30;;;;;;;11.80;3.13;;;;;;;;;;4920008;29;20056;-63
2021/05/11 00:55:57;;;;;;;8.50;2.95;;;;;;;;;;4906330;29;20052;-60
2021/05/11 00:58:23;;;;;;;11.68;3.17;;;;;;;;;;4904057;29;20180;-62
2021/05/11 01:00:49;;;;;;;10.98;3.88;;;;;;;;;;4906952;29;20115;-63
2021/05/11 01:03:15;;;;;;;14.90;3.38;;;;;;;;;;4907094;29;20048;-62
2021/05/11 01:05:41;;;;;;;10.57;3.38;;;;;;;;;;4919182;29;20104;-62
2021/05/11 01:08:07;;;;;;;11.20;3.10;;;;;;;;;;4914597;29;20036;-60
2021/05/11 01:10:34;;;;;;;11.50;3.58;;;;;;;;;;4908346;29;20071;-61
2021/05/11 01:13:00;;;;;;;16.13;3.95;;;;;;;;;;4921386;29;20059;-62
2021/05/11 01:15:26;;;;;;;12.95;3.67;;;;;;;;;;4907344;29;20039;-60
2021/05/11 01:17:59;;;;;;;8.50;3.58;;;;;;;;;;4904715;29;20040;-62
2021/05/11 01:20:28;;;;;;;8.30;3.40;;;;;;;;;;4903940;29;20040;-60
2021/05/11 01:25:42;;;;;;;9.68;3.25;;;;;;;;;;4905551;29;20092;-64
2021/05/11 01:28:13;;;;;;;11.18;3.47;;;;;;;;;;4907219;29;20040;-63
2021/05/11 01:31:13;;;;;;;15.68;3.38;;;;;;;;;;4905433;29;20076;-64
2021/05/11 01:47:43;;;;;;;15.30;3.50;;;;;;;;;;4919812;29;20055;-63
2021/05/11 01:50:17;;;;;;;9.98;3.10;;;;;;;;;;4905480;29;20040;-61
2021/05/11 01:52:54;;;;;;;10.00;3.15;;;;;;;;;;4906416;29;20048;-60
2021/05/11 01:55:38;;;;;;;11.88;3.28;;;;;;;;;;4905246;29;20126;-62
2021/05/11 02:22:52;;;;;;;14.32;3.17;;;;;;;;;;4917638;29;20043;-62
2021/05/11 02:25:18;;;;;;;9.40;3.22;;;;;;;;;;4940128;29;20040;-61
2021/05/11 02:27:45;;;;;;;10.98;2.85;;;;;;;;;;4925227;29;20348;-60
2021/05/11 02:30:12;;;;;;;14.02;3.40;;;;;;;;;;4908330;29;20055;-60
2021/05/11 02:32:39;;;;;;;13.20;3.67;;;;;;;;;;4903223;29;20135;-61
2021/05/11 02:35:05;;;;;;;12.70;3.25;;;;;;;;;;4908831;29;20051;-63
2021/05/11 02:37:31;;;;;;;12.60;3.13;;;;;;;;;;4904793;29;20040;-61
2021/05/11 02:39:57;;;;;;;11.35;3.03;;;;;;;;;;4908986;29;20055;-63
2021/05/11 02:42:23;;;;;;;13.18;3.50;;;;;;;;;;4906369;29;20289;-60
2021/05/11 02:44:52;;;;;;;10.73;3.38;;;;;;;;;;4909792;29;20048;-61
2021/05/11 02:47:18;;;;;;;10.02;3.13;;;;;;;;;;4915486;29;20035;-63
2021/05/11 02:49:45;;;;;;;10.55;3.00;;;;;;;;;;4929188;29;20106;-61
2021/05/11 02:52:11;;;;;;;6.15;2.83;;;;;;;;;;4925818;29;20047;-63
2021/05/11 02:54:37;;;;;;;12.57;2.97;;;;;;;;;;4929797;29;20058;-64
2021/05/11 02:57:03;;;;;;;10.32;3.25;;;;;;;;;;4924006;29;20066;-63
2021/05/11 02:59:29;;;;;;;10.43;3.05;;;;;;;;;;4928453;29;20096;-62
2021/05/11 03:01:56;;;;;;;12.27;3.17;;;;;;;;;;4940499;29;20051;-63
2021/05/11 03:04:23;;;;;;;15.07;3.10;;;;;;;;;;4909033;29;20051;-63
2021/05/11 03:06:51;;;;;;;11.45;3.00;;;;;;;;;;4909046;29;20044;-63
2021/05/11 03:09:17;;;;;;;12.15;3.63;;;;;;;;;;4923056;29;20047;-63
2021/05/11 03:11:43;;;;;;;8.80;3.13;;;;;;;;;;4928806;29;20067;-60
2021/05/11 03:14:09;;;;;;;11.75;2.92;;;;;;;;;;4910409;29;20088;-62
2021/05/11 03:16:36;;;;;;;16.63;3.40;;;;;;;;;;4910975;29;20040;-61
2021/05/11 03:19:03;;;;;;;17.30;3.20;;;;;;;;;;4907395;29;20031;-64
2021/05/11 03:21:29;;;;;;;15.02;3.42;;;;;;;;;;4909218;29;20141;-62
2021/05/11 03:23:55;;;;;;;11.25;3.22;;;;;;;;;;4906925;29;20048;-60
2021/05/11 03:26:21;;;;;;;10.00;2.83;;;;;;;;;;4910669;29;20047;-62
2021/05/11 03:28:47;;;;;;;10.00;3.10;;;;;;;;;;4924788;29;20051;-62
2021/05/11 03:31:12;;;;;;;8.48;3.17;;;;;;;;;;4911038;29;20047;-63
2021/05/11 03:33:40;;;;;;;11.63;3.08;;;;;;;;;;4907366;29;20120;-61
2021/05/11 03:36:07;;;;;;;7.97;3.10;;;;;;;;;;4910730;29;20040;-61
2021/05/11 03:38:33;;;;;;;7.97;2.95;;;;;;;;;;4909767;29;20064;-61
2021/05/11 03:40:59;;;;;;;9.90;2.88;;;;;;;;;;4947359;28;20075;-62
2021/05/11 03:43:28;;;;;;;10.23;3.03;;;;;;;;;;4928862;29;20043;-56
2021/05/11 03:45:57;;;;;;;9.40;3.17;;;;;;;;;;4928563;29;20051;-64
2021/05/11 03:48:23;;;;;;;14.30;3.50;;;;;;;;;;4932326;29;20127;-57
2021/05/11 03:50:49;;;;;;;11.98;3.50;;;;;;;;;;4910413;29;20071;-61
2021/05/11 03:53:17;;;;;;;11.02;3.05;;;;;;;;;;4910583;29;20050;-60
2021/05/11 03:55:43;;;;;;;8.25;3.00;;;;;;;;;;4924313;29;20048;-61
2021/05/11 03:58:09;;;;;;;8.32;2.95;;;;;;;;;;4909171;29;20046;-61
2021/05/11 04:00:35;;;;;;;12.32;2.92;;;;;;;;;;4906690;29;20031;-60
2021/05/11 04:03:01;;;;;;;10.27;3.25;;;;;;;;;;4910821;29;20046;-59
2021/05/11 04:05:27;;;;;;;9.02;3.20;;;;;;;;;;4914182;29;20059;-59
2021/05/11 04:07:56;;;;;;;8.80;3.10;;;;;;;;;;4910024;29;20048;-59
2021/05/11 04:10:29;;;;;;;10.93;3.00;;;;;;;;;;4905534;29;20054;-61
2021/05/11 04:13:13;;;;;;;10.20;2.95;;;;;;;;;;4909076;29;20055;-62
2021/05/11 04:18:23;;;;;;;11.15;3.30;;;;;;;;;;4908627;29;20114;-63
2021/05/11 04:20:49;;;;;;;9.55;3.25;;;;;;;;;;4906371;29;20051;-63
2021/05/11 04:23:15;;;;;;;8.65;3.30;;;;;;;;;;4910263;29;20133;-63
2021/05/11 04:25:42;;;;;;;8.68;3.05;;;;;;;;;;4905142;29;20047;-63
2021/05/11 04:28:08;;;;;;;14.50;3.53;;;;;;;;;;4909710;29;20059;-63
2021/05/11 04:30:34;;;;;;;8.60;3.42;;;;;;;;;;4908110;29;20075;-59
2021/05/11 04:33:00;;;;;;;12.57;3.65;;;;;;;;;;4946162;29;20040;-60
2021/05/11 04:35:27;;;;;;;11.60;3.40;;;;;;;;;;4926632;29;20047;-59
2021/05/11 04:37:53;;;;;;;8.38;3.28;;;;;;;;;;4912671;29;20059;-56
2021/05/11 04:40:19;;;;;;;10.00;3.70;;;;;;;;;;4909506;29;20051;-60
2021/05/11 04:42:46;;;;;;;7.35;2.90;;;;;;;;;;4922072;29;20043;-62
2021/05/11 04:45:15;;;;;;;10.43;3.67;;;;;;;;;;4928899;29;20050;-60
2021/05/11 04:47:48;;;;;;;8.00;3.10;;;;;;;;;;4925652;29;20043;-62
2021/05/11 04:50:15;;;;;;;7.03;3.20;;;;;;;;;;4927432;29;20160;-60
2021/05/11 04:52:41;;;;;;;12.05;3.65;;;;;;;;;;4912742;29;20040;-57
2021/05/11 04:55:08;;;;;;;13.27;4.28;;;;;;;;;;4909112;29;20052;-59
2021/05/11 04:57:34;;;;;;;10.90;3.50;;;;;;;;;;4904630;29;20123;-60
2021/05/11 05:00:03;;;;;;;10.07;3.58;;;;;;;;;;4910076;29;20055;-58
2021/05/11 05:02:29;;;;;;;;;;;;;;;;;;4921446;29;20052;-59
2021/05/11 05:04:55;;;;;;;14.25;3.35;;;;;;;;;;4922390;29;19931;-57
2021/05/11 05:07:21;;;;;;;9.20;3.00;;;;;;;;;;4937583;29;20126;-60
2021/05/11 05:09:47;;;;;;;11.80;3.40;;;;;;;;;;4909732;29;20055;-62
2021/05/11 05:12:13;;;;;;;11.45;3.33;;;;;;;;;;4907120;29;20143;-62
2021/05/11 05:14:39;;;;;;;11.00;3.45;;;;;;;;;;4908623;29;20028;-57
2021/05/11 05:17:06;;;;;;;12.02;3.38;;;;;;;;;;4925027;29;20059;-61
2021/05/11 05:19:34;;;;;;;8.98;3.65;;;;;;;;;;4908926;29;20092;-59
2021/05/11 05:22:00;;;;;;;11.02;3.70;;;;;;;;;;4912297;29;20044;-59
2021/05/11 05:24:34;;;;;;;9.45;3.70;;;;;;;;;;4907224;29;20076;-59
2021/05/11 05:27:02;;;;;;;9.63;3.72;;;;;;;;;;4905082;29;20044;-58
2021/05/11 05:29:27;;;;;;;9.00;3.45;;;;;;;;;;4916566;29;20099;-59
2021/05/11 05:31:53;;;;;;;7.43;3.17;;;;;;;;;;4904849;29;20060;-56
2021/05/11 05:34:21;;;;;;;11.10;3.03;;;;;;;;;;4903830;29;20040;-60
2021/05/11 05:36:46;;;;;;;10.05;3.17;;;;;;;;;;4907712;29;20106;-58
2021/05/11 05:39:12;;;;;;;9.63;3.55;;;;;;;;;;4914477;29;20067;-61
2021/05/11 05:41:38;;;;;;;7.32;3.17;;;;;;;;;;4923615;29;20080;-56
2021/05/11 05:44:06;;;;;;;12.50;3.28;;;;;;;;;;4921567;29;20036;-59
2021/05/11 05:46:32;;;;;;;7.43;3.38;;;;;;;;;;4919514;29;20044;-59
2021/05/11 05:48:58;;;;;;;11.48;3.45;;;;;;;;;;4905058;29;20070;-58
2021/05/11 05:51:26;;;;;;;7.40;3.60;;;;;;;;;;4917843;29;20092;-60
2021/05/11 05:53:52;;;;;;;9.88;3.75;;;;;;;;;;4916316;29;20043;-58
2021/05/11 05:56:18;;;;;;;5.97;3.08;;;;;;;;;;4906991;29;20052;-58
2021/05/11 05:58:46;;;;;;;13.98;3.88;;;;;;;;;;4921999;29;20052;-60
2021/05/11 06:01:12;;;;;;;18.73;3.97;;;;;;;;;;4906114;29;20040;-61
2021/05/11 06:03:40;;;;;;;6.78;3.70;;;;;;;;;;4925410;28;20101;-57
2021/05/11 06:06:07;;;;;;;7.90;3.80;;;;;;;;;;4903973;29;20077;-61
2021/05/11 06:08:35;;;;;;;6.60;3.08;;;;;;;;;;4921601;29;20070;-60
2021/05/11 06:11:07;;;;;;;10.85;3.75;;;;;;;;;;4903295;29;20060;-61
2021/05/11 06:13:38;;;;;;;10.02;3.58;;;;;;;;;;4907523;29;20055;-61
2021/05/11 06:18:49;;;;;;;12.10;3.03;;;;;;;;;;4922749;29;20103;-56
2021/05/11 06:21:16;;;;;;;13.88;3.80;;;;;;;;;;4917492;29;20060;-57
2021/05/11 06:23:43;;;;;;;10.98;2.95;;;;;;;;;;4917917;29;20041;-59
2021/05/11 06:26:09;;;;;;;12.52;4.18;;;;;;;;;;4918228;29;20048;-57
2021/05/11 06:28:38;;;;;;;12.13;4.00;;;;;;;;;;4908048;29;20112;-60
2021/05/11 06:31:04;;;;;;;8.45;3.50;;;;;;;;;;4900863;29;20039;-57
2021/05/11 06:33:30;;;;;;;14.68;4.03;;;;;;;;;;4907460;29;20054;-60
2021/05/11 06:35:56;;;;;;;10.50;4.13;;;;;;;;;;4909764;29;20055;-59
2021/05/11 06:38:22;;;;;;;14.68;4.15;;;;;;;;;;4926286;29;20047;-58
2021/05/11 06:40:50;;;;;;;14.93;3.80;;;;;;;;;;4920731;29;20046;-56
2021/05/11 06:43:23;;;;;;;8.95;3.85;;;;;;;;;;4908253;29;20153;-59
2021/05/11 06:48:33;;;;;;;8.65;4.10;;;;;;;;;;4906986;29;20104;-59
2021/05/11 06:53:44;;;;;;;9.25;3.95;;;;;;;;;;4926665;29;20027;-58
2021/05/11 06:56:13;;;;;;;9.82;3.92;;;;;;;;;;4925073;29;20036;-60
2021/05/11 06:58:39;;;;;;;11.00;4.15;;;;;;;;;;4911022;29;20051;-57
2021/05/11 07:01:05;;;;;;;8.48;4.13;;;;;;;;;;4898565;29;20050;-60
2021/05/11 07:03:31;;;;;;;11.82;4.00;;;;;;;;;;4911988;29;20050;-60
2021/05/11 07:05:59;;;;;;;10.55;4.03;;;;;;;;;;4897324;29;20056;-59
2021/05/11 07:08:30;;;;;;;11.02;4.53;;;;;;;;;;4918385;29;20102;-57
2021/05/11 07:10:58;;;;;;;11.77;4.15;;;;;;;;;;4922957;29;20060;-62
2021/05/11 07:13:24;;;;;;;15.40;4.72;;;;;;;;;;4906716;29;20054;-58
2021/05/11 07:15:50;;;;;;;10.38;3.90;;;;;;;;;;4907219;29;20042;-60
2021/05/11 07:18:19;;;;;;;8.55;4.18;;;;;;;;;;4914006;29;20043;-62
2021/05/11 07:20:45;;;;;;;12.88;5.45;;;;;;;;;;4915303;29;20068;-64
2021/05/11 07:23:16;;;;;;;15.30;5.53;;;;;;;;;;4922918;29;20068;-61
2021/05/11 07:25:48;;;;;;;12.55;5.20;;;;;;;;;;4895105;29;20083;-58
2021/05/11 07:31:02;;;;;;;14.18;5.63;;;;;;;;;;4908992;29;20043;-62
2021/05/11 07:33:32;;;;;;;10.73;5.00;;;;;;;;;;4914330;29;20137;-62
2021/05/11 07:35:59;;;;;;;10.93;4.78;;;;;;;;;;4928469;29;20028;-64
2021/05/11 07:38:25;;;;;;;12.02;4.85;;;;;;;;;;4919831;29;20131;-62
2021/05/11 07:40:51;;;;;;;12.68;5.20;;;;;;;;;;4908805;29;20036;-63
2021/05/11 07:43:17;;;;;;;11.60;4.40;;;;;;;;;;4907827;29;20040;-60
2021/05/11 07:46:01;;;;;;;17.75;5.40;;;;;;;;;;4909575;29;20044;-64
2021/05/11 07:48:41;;;;;;;12.48;4.85;;;;;;;;;;4905853;29;20115;-59
2021/05/11 08:02:19;;;;;;;13.35;5.28;;;;;;;;;;4926595;29;20072;-59
2021/05/11 08:04:49;;;;;;;13.57;5.13;;;;;;;;;;4917808;29;20047;-59
2021/05/11 08:10:15;;;;;;;18.30;4.93;;;;;;;;;;4915437;29;20044;-60
2021/05/11 08:15:28;;;;;;;12.95;6.03;;;;;;;;;;4905518;29;20044;-55
2021/05/11 08:17:59;;;;;;;12.23;5.93;;;;;;;;;;4908707;29;20071;-60
2021/05/11 08:20:41;;;;;;;11.60;6.47;;;;;;;;;;4923866;29;20054;-61
2021/05/11 08:23:26;;;;;;;11.98;5.25;;;;;;;;;;4902530;29;20047;-58
2021/05/11 08:28:36;;;;;;;19.02;8.52;;;;;;;;;;4911156;29;20043;-57
2021/05/11 08:31:02;;;;;;;20.58;8.00;;;;;;;;;;4908994;29;20040;-59
2021/05/11 08:33:28;;;;;;;16.50;5.78;;;;;;;;;;4913236;29;20032;-57
2021/05/11 08:35:56;;;;;;;16.05;5.47;;;;;;;;;;4905806;29;20052;-59
2021/05/11 08:38:22;;;;;;;14.68;5.80;;;;;;;;;;4908297;29;20083;-60
2021/05/11 08:40:48;;;;;;;15.98;6.10;;;;;;;;;;4922519;29;20048;-61
2021/05/11 08:43:24;;;;;;;14.57;5.45;;;;;;;;;;4908841;29;20059;-60
2021/05/11 08:45:51;;;;;;;15.15;5.82;;;;;;;;;;4907400;29;20055;-60
2021/05/11 08:48:17;;;;;;;14.57;5.13;;;;;;;;;;4926043;29;20064;-62
2021/05/11 08:50:46;;;;;;;14.13;6.57;;;;;;;;;;4906232;29;20055;-57
2021/05/11 08:53:28;;;;;;;14.38;6.68;;;;;;;;;;4916836;29;20062;-56
2021/05/11 09:07:11;;;;;;;12.65;5.88;;;;;;;;;;4910659;29;20048;-60
2021/05/11 09:09:56;;;;;;;9.98;4.45;;;;;;;;;;4924997;29;20123;-63
2021/05/11 09:16:06;;;;;;;11.60;4.25;;;;;;;;;;4908915;29;20043;-63
2021/05/11 09:24:05;;;;;;;10.48;4.10;;;;;;;;;;4890163;29;20094;-61
2021/05/11 09:26:46;;;;;;;13.93;4.65;;;;;;;;;;4908939;29;20095;-62
2021/05/11 09:29:24;;;;;;;15.68;4.97;;;;;;;;;;4937134;29;20129;-60
2021/05/11 09:31:57;;;;;;;11.68;5.18;;;;;;;;;;4928843;29;20046;-61
2021/05/11 09:34:31;;;;;;;17.55;6.30;;;;;;;;;;4923397;29;20035;-61
2021/05/11 10:39:04;;;;;;;15.88;4.82;;;;;;;;;;4905522;29;20032;-64
2021/05/11 10:41:47;;;;;;;11.88;4.00;;;;;;;;;;4918569;29;20044;-63
2021/05/11 10:44:53;;;;;;;15.02;5.00;;;;;;;;;;4907669;29;20150;-61
2021/05/11 10:47:17;;;;;;;15.82;4.70;;;;;;;;;;4935764;29;20058;-64
2021/05/11 10:49:44;;;;;;;12.18;4.38;;;;;;;;;;4924304;29;20059;-63
2021/05/11 10:52:13;;;;;;;8.85;4.05;;;;;;;;;;4924497;29;20080;-61
2021/05/11 10:54:40;;;;;;;9.20;3.08;;;;;;;;;;4923951;29;20059;-61
2021/05/11 10:57:26;;;;;;;9.73;3.80;;;;;;;;;;4904074;29;20126;-61
2021/05/11 11:02:39;;;;;;;10.95;4.60;;;;;;;;;;4918002;29;20059;-60
2021/05/11 11:05:07;;;;;;;10.35;4.10;;;;;;;;;;4925276;29;20024;-63
2021/05/11 11:07:35;;;;;;;8.65;3.35;;;;;;;;;;4915206;29;20039;-62
2021/05/11 11:10:02;;;;;;;14.10;4.63;;;;;;;;;;4911076;29;20049;-60
2021/05/11 11:12:35;;;;;;;12.98;4.68;;;;;;;;;;4924074;29;20048;-60
2021/05/11 11:15:03;;;;;;;15.13;4.70;;;;;;;;;;4908619;29;20040;-60
2021/05/11 11:17:39;;;;;;;10.98;4.38;;;;;;;;;;4905773;29;20040;-60
2021/05/11 11:20:08;;;;;;;12.77;4.78;;;;;;;;;;4909006;29;20039;-60
2021/05/11 11:25:21;;;;;;;10.65;4.78;;;;;;;;;;4908985;29;20127;-60
2021/05/11 11:27:48;;;;;;;15.15;5.97;;;;;;;;;;4906748;29;20076;-61
2021/05/11 11:30:14;;;;;;;14.55;5.80;;;;;;;;;;4910547;29;20049;-60
2021/05/11 11:32:40;;;;;;;18.90;5.80;;;;;;;;;;4907838;29;20051;-59
2021/05/11 11:35:08;;;;;;;14.85;5.72;;;;;;;;;;4926494;29;20048;-61
2021/05/11 11:37:34;;;;;;;12.98;6.10;;;;;;;;;;4909782;29;20059;-60
2021/05/11 11:40:02;;;;;;;16.23;6.40;;;;;;;;;;4929521;29;20039;-57
2021/05/11 11:42:29;;;;;;;13.35;5.97;;;;;;;;;;4926785;29;20047;-59
2021/05/11 11:45:01;;;;;;;11.98;5.82;;;;;;;;;;4912342;29;20032;-56
2021/05/11 11:47:28;;;;;;;18.77;5.82;;;;;;;;;;4910490;29;20049;-61
2021/05/11 11:49:56;;;;;;;10.40;4.78;;;;;;;;;;4906341;29;20059;-59
2021/05/11 11:52:28;;;;;;;15.43;5.78;;;;;;;;;;4910306;29;20052;-60
2021/05/11 11:55:15;;;;;;;14.65;5.95;;;;;;;;;;4932735;29;20047;-61
2021/05/11 11:57:53;;;;;;;14.20;6.03;;;;;;;;;;4925858;29;20036;-61
2021/05/11 12:00:19;;;;;;;;;;;;;;;;;;4922829;29;20048;-61
2021/05/11 12:02:52;;;;;;;12.65;6.43;;;;;;;;;;4927045;28;20009;-61
2021/05/11 12:05:19;;;;;;;14.95;6.10;;;;;;;;;;4923115;29;20146;-60
2021/05/11 12:07:58;;;;;;;13.43;6.22;;;;;;;;;;4927924;29;20040;-60
2021/05/11 12:10:25;;;;;;;15.40;6.63;;;;;;;;;;4924707;29;20059;-60
2021/05/11 12:12:52;;;;;;;21.40;6.97;;;;;;;;;;4945397;28;20054;-63
2021/05/11 12:15:20;;;;;;;15.95;7.60;;;;;;;;;;4941525;29;20103;-60
2021/05/11 12:17:47;;;;;;;23.40;9.77;;;;;;;;;;4928063;29;20063;-62
2021/05/11 12:20:23;;;;;;;11.48;5.63;;;;;;;;;;4939134;29;20072;-61
2021/05/11 12:22:49;;;;;;;15.82;5.13;;;;;;;;;;4925474;29;20061;-61
2021/05/11 12:25:23;;;;;;;11.98;4.20;;;;;;;;;;4909480;29;20048;-60
2021/05/11 12:27:49;;;;;;;13.25;3.85;;;;;;;;;;4907853;29;20036;-60
2021/05/11 12:30:16;;;;;;;13.98;3.95;;;;;;;;;;4929027;29;20159;-60
2021/05/11 12:32:42;;;;;;;11.23;4.13;;;;;;;;;;4890718;29;20095;-62
2021/05/11 12:35:09;;;;;;;10.82;4.47;;;;;;;;;;4893741;29;20043;-63
2021/05/11 12:37:45;;;;;;;13.75;4.88;;;;;;;;;;4908138;29;20056;-60
2021/05/11 12:40:22;;;;;;;11.73;4.80;;;;;;;;;;4923115;29;20060;-63
2021/05/11 12:42:48;;;;;;;11.75;4.57;;;;;;;;;;4924940;29;20063;-62
2021/05/11 12:45:15;;;;;;;10.93;5.20;;;;;;;;;;4924560;29;20040;-60
2021/05/11 12:47:42;;;;;;;17.08;5.88;;;;;;;;;;4927278;29;20043;-61
2021/05/11 12:50:12;;;;;;;14.02;4.85;;;;;;;;;;4906059;29;20036;-59
2021/05/11 12:52:38;;;;;;;15.25;5.28;;;;;;;;;;4901066;29;20032;-60
2021/05/11 12:55:14;;;;;;;15.95;5.07;;;;;;;;;;4907475;29;20066;-62
2021/05/11 12:57:53;;;;;;;17.17;5.20;;;;;;;;;;4907435;29;20131;-60
2021/05/11 13:00:34;;;;;;;11.82;4.93;;;;;;;;;;4907314;29;20126;-60
2021/05/11 13:03:15;;;;;;;11.85;5.10;;;;;;;;;;4906749;29;20044;-59
2021/05/11 13:14:30;;;;;;;10.45;3.53;;;;;;;;;;4908025;29;20036;-59
2021/05/11 13:17:03;;;;;;;8.18;2.45;;;;;;;;;;4906029;29;20087;-61
2021/05/11 13:22:39;;;;;;;6.65;1.98;;;;;;;;;;4865780;29;20062;-59
2021/05/11 13:25:12;;;;;;;9.18;2.55;;;;;;;;;;4917997;29;20099;-60
2021/05/11 13:27:42;;;;;;;10.20;2.60;;;;;;;;;;4912439;29;20138;-61
2021/05/11 13:30:21;;;;;;;13.43;3.30;;;;;;;;;;4927778;29;20039;-60
2021/05/11 13:32:57;;;;;;;8.05;2.80;;;;;;;;;;4920524;29;20051;-61
2021/05/11 13:35:24;;;;;;;10.35;2.40;;;;;;;;;;4926200;29;20055;-59
2021/05/11 13:37:50;;;;;;;7.47;2.38;;;;;;;;;;4914816;29;20039;-60
2021/05/11 13:40:16;;;;;;;10.55;3.00;;;;;;;;;;4908181;29;20057;-63
2021/05/11 13:42:42;;;;;;;5.95;2.40;;;;;;;;;;4921024;29;20343;-62
2021/05/11 13:45:08;;;;;;;12.02;4.00;;;;;;;;;;4907792;29;20043;-58
2021/05/11 13:47:34;;;;;;;14.18;3.95;;;;;;;;;;4922567;29;20056;-59
2021/05/11 13:50:04;;;;;;;9.35;3.10;;;;;;;;;;4908651;29;20032;-61
2021/05/11 13:52:31;;;;;;;12.13;2.97;;;;;;;;;;4905324;29;20036;-58
2021/05/11 13:55:00;;;;;;;11.35;3.30;;;;;;;;;;4907376;29;20063;-59
2021/05/11 14:01:32;;;;;;;11.27;3.50;;;;;;;;;;4907413;29;20051;-61
2021/05/11 14:03:02;;;;;;;14.70;3.90;;;;;;;;;;4903712;29;20048;-62
2021/05/11 14:05:29;;;;;;;11.85;4.07;;;;;;;;;;4925859;29;20048;-61
2021/05/11 14:07:55;;;;;;;12.48;3.92;;;;;;;;;;4928039;29;20055;-57
2021/05/11 14:10:22;;;;;;;14.00;3.83;;;;;;;;;;4923355;29;20040;-60
2021/05/11 14:12:48;;;;;;;10.45;3.55;;;;;;;;;;4926274;29;20046;-60
2021/05/11 14:15:15;;;;;;;12.90;3.25;;;;;;;;;;4923192;29;20043;-59
2021/05/11 14:17:41;;;;;;;10.90;3.70;;;;;;;;;;4926781;29;20050;-59
2021/05/11 14:20:08;;;;;;;13.88;4.50;;;;;;;;;;4911566;29;20032;-60
2021/05/11 14:22:34;;;;;;;13.27;4.85;;;;;;;;;;4909226;29;20060;-57
2021/05/11 14:25:00;;;;;;;19.38;5.90;;;;;;;;;;4921873;29;20051;-62
2021/05/11 14:27:28;;;;;;;15.70;5.75;;;;;;;;;;4893310;29;20051;-59
2021/05/11 14:29:54;;;;;;;14.13;5.75;;;;;;;;;;4899401;29;20051;-58
2021/05/11 14:32:20;;;;;;;8.95;5.10;;;;;;;;;;4927135;29;20125;-60
2021/05/11 14:34:48;;;;;;;14.38;5.95;;;;;;;;;;4922822;29;20079;-55
2021/05/11 14:37:16;;;;;;;11.48;5.20;;;;;;;;;;4926134;29;20126;-62
2021/05/11 14:39:43;;;;;;;14.73;5.38;;;;;;;;;;4924834;29;20076;-60
2021/05/11 14:42:09;;;;;;;11.05;5.38;;;;;;;;;;4930100;29;20038;-59
2021/05/11 14:44:35;;;;;;;16.52;5.40;;;;;;;;;;4945753;29;20039;-58
2021/05/11 14:47:01;;;;;;;16.25;5.63;;;;;;;;;;4909154;29;20059;-60
2021/05/11 14:49:27;;;;;;;19.48;5.50;;;;;;;;;;4910227;29;20043;-59
2021/05/11 14:51:53;;;;;;;17.42;5.32;;;;;;;;;;4907470;29;20047;-58
2021/05/11 14:54:19;;;;;;;15.85;6.15;;;;;;;;;;4912354;29;20072;-55
2021/05/11 14:56:46;;;;;;;14.68;6.18;;;;;;;;;;4908078;29;20040;-54
2021/05/11 14:59:12;;;;;;;13.20;4.50;;;;;;;;;;4912051;29;20043;-58
2021/05/11 15:01:39;;;;;;;10.38;4.28;;;;;;;;;;4908966;29;20054;-60
2021/05/11 15:04:06;;;;;;;13.23;3.90;;;;;;;;;;4919373;29;20032;-60
2021/05/11 15:06:33;;;;;;;11.27;4.68;;;;;;;;;;4915340;29;20089;-61
2021/05/11 15:08:59;;;;;;;8.38;3.83;;;;;;;;;;4926419;29;20048;-59
2021/05/11 15:11:25;;;;;;;10.27;3.60;;;;;;;;;;4907101;29;20148;-60
2021/05/11 15:13:54;;;;;;;21.95;6.32;;;;;;;;;;4911485;29;20024;-60
2021/05/11 15:16:22;;;;;;;10.40;4.20;;;;;;;;;;4905592;29;20052;-59
2021/05/11 15:18:48;;;;;;;8.88;3.20;;;;;;;;;;4909491;29;20036;-61
2021/05/11 15:21:15;;;;;;;18.65;3.00;;;;;;;;;;4908304;29;20044;-63
2021/05/11 15:23:41;;;;;;;10.85;3.10;;;;;;;;;;4929703;29;20051;-64
2021/05/11 15:26:07;;;;;;;10.38;3.05;;;;;;;;;;4936243;28;20047;-64
2021/05/11 15:28:34;;;;;;;11.38;3.50;;;;;;;;;;4905036;29;20047;-63
2021/05/11 15:31:01;;;;;;;11.63;3.80;;;;;;;;;;4909478;29;20131;-64
2021/05/11 15:33:28;;;;;;;7.88;3.38;;;;;;;;;;4906293;29;20048;-62
2021/05/11 15:35:54;;;;;;;13.70;3.28;;;;;;;;;;4909867;29;20067;-61
2021/05/11 15:38:20;;;;;;;8.65;3.22;;;;;;;;;;4918267;29;20054;-61
2021/05/11 15:40:46;;;;;;;11.07;3.40;;;;;;;;;;4926952;29;20051;-59
2021/05/11 15:43:13;;;;;;;10.52;3.10;;;;;;;;;;4924705;29;20043;-60
2021/05/11 15:45:39;;;;;;;8.43;2.78;;;;;;;;;;4927771;29;20043;-56
2021/05/11 15:48:08;;;;;;;7.28;3.05;;;;;;;;;;4931487;29;20032;-59
2021/05/11 15:50:34;;;;;;;;;;;;;;;;;;4908532;29;20039;-59
2021/05/11 15:53:02;;;;;;;6.85;2.97;;;;;;;;;;4905235;29;20008;-59
2021/05/11 15:55:28;;;;;;;10.47;3.40;;;;;;;;;;4907709;29;20044;-60
2021/05/11 15:57:54;;;;;;;7.70;3.20;;;;;;;;;;4905276;29;20287;-61
2021/05/11 16:00:21;;;;;;;12.38;3.47;;;;;;;;;;4911012;29;20114;-62
2021/05/11 16:02:47;;;;;;;9.02;3.25;;;;;;;;;;4905871;29;20071;-61
2021/05/11 16:05:16;;;;;;;12.80;3.63;;;;;;;;;;4912119;29;20043;-58
2021/05/11 16:07:42;;;;;;;8.57;3.55;;;;;;;;;;4925399;29;20044;-59
2021/05/11 16:10:09;;;;;;;9.90;3.60;;;;;;;;;;4889775;29;20055;-59
2021/05/11 16:12:36;;;;;;;10.55;3.50;;;;;;;;;;4907374;29;20060;-62
2021/05/11 16:15:04;;;;;;;12.57;3.40;;;;;;;;;;4906229;29;20111;-63
2021/05/11 16:17:30;;;;;;;11.75;3.40;;;;;;;;;;4901430;29;20060;-63
2021/05/11 16:19:56;;;;;;;12.23;3.53;;;;;;;;;;4913424;29;20043;-58
2021/05/11 16:22:23;;;;;;;9.68;3.92;;;;;;;;;;4928622;29;20043;-58
2021/05/11 16:24:50;;;;;;;9.98;3.70;;;;;;;;;;4913170;29;20091;-60
2021/05/11 16:27:16;;;;;;;11.60;3.75;;;;;;;;;;4924900;29;20051;-61
2021/05/11 16:29:42;;;;;;;11.38;3.90;;;;;;;;;;4901384;29;20126;-59
2021/05/11 16:32:11;;;;;;;9.52;3.47;;;;;;;;;;4906836;29;20040;-58
2021/05/11 16:34:39;;;;;;;12.52;3.80;;;;;;;;;;4905028;29;20044;-58
2021/05/11 16:37:06;;;;;;;10.73;3.80;;;;;;;;;;4908166;29;20071;-57
2021/05/11 16:39:33;;;;;;;9.43;4.00;;;;;;;;;;4919884;29;20059;-61
2021/05/11 16:41:59;;;;;;;11.15;3.88;;;;;;;;;;4924298;29;20055;-61
2021/05/11 16:44:25;;;;;;;10.40;4.35;;;;;;;;;;4905828;29;20048;-60
2021/05/11 16:46:51;;;;;;;11.10;3.60;;;;;;;;;;4908133;29;20052;-62
2021/05/11 16:49:17;;;;;;;10.75;4.13;;;;;;;;;;4907244;29;20044;-61
2021/05/11 16:51:43;;;;;;;16.33;4.50;;;;;;;;;;4905439;29;20040;-61
2021/05/11 16:54:09;;;;;;;12.10;4.20;;;;;;;;;;4907963;29;20052;-63
2021/05/11 16:56:36;;;;;;;12.68;4.32;;;;;;;;;;4920742;29;20061;-60
2021/05/11 16:59:03;;;;;;;12.00;4.07;;;;;;;;;;4919721;29;20064;-61
2021/05/11 17:01:29;;;;;;;12.02;4.38;;;;;;;;;;4902474;29;20032;-61
2021/05/11 17:03:55;;;;;;;10.23;4.05;;;;;;;;;;4904734;29;20052;-62
2021/05/11 17:06:21;;;;;;;11.13;4.05;;;;;;;;;;4919907;29;20099;-64
2021/05/11 17:08:47;;;;;;;10.93;4.25;;;;;;;;;;4906782;29;20028;-62
2021/05/11 17:11:16;;;;;;;9.40;4.38;;;;;;;;;;4921077;29;20051;-61
2021/05/11 17:13:43;;;;;;;12.30;4.22;;;;;;;;;;4918381;29;20060;-63
2021/05/11 17:16:11;;;;;;;13.15;4.05;;;;;;;;;;4921475;29;20092;-61
2021/05/11 17:18:37;;;;;;;12.77;4.57;;;;;;;;;;4922301;29;20048;-63
2021/05/11 17:21:04;;;;;;;8.13;4.35;;;;;;;;;;4913931;29;20056;-64
2021/05/11 17:23:30;;;;;;;11.60;4.28;;;;;;;;;;4924199;29;20055;-59
2021/05/11 17:25:56;;;;;;;14.05;4.68;;;;;;;;;;4904214;29;20058;-57
2021/05/11 17:28:22;;;;;;;9.73;4.22;;;;;;;;;;4906822;29;20055;-58
2021/05/11 17:30:55;;;;;;;13.60;4.70;;;;;;;;;;4906387;29;20048;-60
2021/05/11 17:33:21;;;;;;;11.73;4.80;;;;;;;;;;4915753;29;20055;-60
2021/05/11 17:35:49;;;;;;;14.50;4.90;;;;;;;;;;4907961;29;20060;-59
2021/05/11 17:38:18;;;;;;;11.13;4.37;;;;;;;;;;4903603;29;20099;-62